sensor_id;sensor_type;location;lat;lon;timestamp;P1;durP1;ratioP1;P2;durP2;ratioP2
65375;SDS011;51976;47.332;9.404;2024-01-27T00:01:13;2.38;;;0.85;;
65375;SDS011;51976;47.332;9.404;2024-01-27T00:03:38;2.13;;;0.80;;
65375;SDS011;51976;47.332;9.404;2024-01-27T00:06:04;1.55;;;0.73;;
65375;SDS011;51976;47.332;9.404;2024-01-27T00:08:29;3.75;;;1.50;;
65375;SDS011;51976;47.332;9.404;2024-01-27T00:10:54;7.03;;;1.98;;
65375;SDS011;51976;47.332;9.404;2024-01-27T00:13:20;3.97;;;1.00;;
65375;SDS011;51976;47.332;9.404;2024-01-27T00:15:45;2.53;;;0.90;;
65375;SDS011;51976;47.332;9.404;2024-01-27T00:18:11;2.50;;;0.95;;
65375;SDS011;51976;47.332;9.404;2024-01-27T00:20:36;2.40;;;0.70;;
65375;SDS011;51976;47.332;9.404;2024-01-27T00:23:03;2.38;;;0.60;;
65375;SDS011;51976;47.332;9.404;2024-01-27T00:25:28;2.20;;;0.77;;
65375;SDS011;51976;47.332;9.404;2024-01-27T00:27:54;1.70;;;0.80;;
65375;SDS011;51976;47.332;9.404;2024-01-27T00:30:19;2.78;;;1.23;;
65375;SDS011;51976;47.332;9.404;2024-01-27T00:32:44;3.80;;;1.83;;
65375;SDS011;51976;47.332;9.404;2024-01-27T00:35:10;6.60;;;1.98;;
65375;SDS011;51976;47.332;9.404;2024-01-27T00:37:39;3.95;;;1.33;;
65375;SDS011;51976;47.332;9.404;2024-01-27T00:40:07;3.80;;;1.13;;
65375;SDS011;51976;47.332;9.404;2024-01-27T00:42:33;1.52;;;0.70;;
65375;SDS011;51976;47.332;9.404;2024-01-27T00:44:59;2.90;;;0.90;;
65375;SDS011;51976;47.332;9.404;2024-01-27T00:47:24;2.47;;;0.85;;
65375;SDS011;51976;47.332;9.404;2024-01-27T00:49:49;2.90;;;1.00;;
65375;SDS011;51976;47.332;9.404;2024-01-27T00:52:15;1.15;;;0.50;;
65375;SDS011;51976;47.332;9.404;2024-01-27T00:54:40;3.13;;;0.77;;
65375;SDS011;51976;47.332;9.404;2024-01-27T00:57:05;1.50;;;0.60;;
65375;SDS011;51976;47.332;9.404;2024-01-27T00:59:31;2.88;;;1.02;;
65375;SDS011;51976;47.332;9.404;2024-01-27T01:01:57;4.68;;;0.95;;
65375;SDS011;51976;47.332;9.404;2024-01-27T01:04:22;4.78;;;1.00;;
65375;SDS011;51976;47.332;9.404;2024-01-27T01:06:47;3.90;;;1.10;;
65375;SDS011;51976;47.332;9.404;2024-01-27T01:09:13;5.25;;;1.00;;
65375;SDS011;51976;47.332;9.404;2024-01-27T01:11:38;2.05;;;0.80;;
65375;SDS011;51976;47.332;9.404;2024-01-27T01:14:04;0.80;;;0.50;;
65375;SDS011;51976;47.332;9.404;2024-01-27T01:16:29;2.17;;;0.90;;
65375;SDS011;51976;47.332;9.404;2024-01-27T01:18:55;1.90;;;0.52;;
65375;SDS011;51976;47.332;9.404;2024-01-27T01:21:20;3.72;;;0.90;;
65375;SDS011;51976;47.332;9.404;2024-01-27T01:23:45;3.28;;;0.80;;
65375;SDS011;51976;47.332;9.404;2024-01-27T01:26:11;1.45;;;0.60;;
65375;SDS011;51976;47.332;9.404;2024-01-27T01:28:36;2.67;;;0.73;;
65375;SDS011;51976;47.332;9.404;2024-01-27T01:31:02;1.67;;;0.55;;
65375;SDS011;51976;47.332;9.404;2024-01-27T01:33:27;2.55;;;0.70;;
65375;SDS011;51976;47.332;9.404;2024-01-27T01:35:53;3.42;;;0.70;;
65375;SDS011;51976;47.332;9.404;2024-01-27T01:38:18;2.35;;;0.60;;
65375;SDS011;51976;47.332;9.404;2024-01-27T01:40:44;2.28;;;0.68;;
65375;SDS011;51976;47.332;9.404;2024-01-27T01:43:09;2.67;;;0.70;;
65375;SDS011;51976;47.332;9.404;2024-01-27T01:45:37;3.00;;;0.65;;
65375;SDS011;51976;47.332;9.404;2024-01-27T01:48:02;4.57;;;1.00;;
65375;SDS011;51976;47.332;9.404;2024-01-27T01:50:28;2.92;;;0.68;;
65375;SDS011;51976;47.332;9.404;2024-01-27T01:52:54;2.03;;;0.80;;
65375;SDS011;51976;47.332;9.404;2024-01-27T01:55:20;3.50;;;0.80;;
65375;SDS011;51976;47.332;9.404;2024-01-27T01:57:46;2.90;;;0.38;;
65375;SDS011;51976;47.332;9.404;2024-01-27T02:00:12;3.55;;;0.75;;
65375;SDS011;51976;47.332;9.404;2024-01-27T02:02:38;3.00;;;1.15;;
65375;SDS011;51976;47.332;9.404;2024-01-27T02:05:04;3.20;;;0.85;;
65375;SDS011;51976;47.332;9.404;2024-01-27T02:07:30;2.45;;;1.10;;
65375;SDS011;51976;47.332;9.404;2024-01-27T02:09:55;4.97;;;0.95;;
65375;SDS011;51976;47.332;9.404;2024-01-27T02:12:20;1.90;;;0.77;;
65375;SDS011;51976;47.332;9.404;2024-01-27T02:14:46;1.35;;;0.73;;
65375;SDS011;51976;47.332;9.404;2024-01-27T02:17:11;2.88;;;0.63;;
65375;SDS011;51976;47.332;9.404;2024-01-27T02:19:37;3.35;;;0.80;;
65375;SDS011;51976;47.332;9.404;2024-01-27T02:22:02;2.13;;;0.75;;
65375;SDS011;51976;47.332;9.404;2024-01-27T02:24:27;4.10;;;0.95;;
65375;SDS011;51976;47.332;9.404;2024-01-27T02:26:53;3.67;;;1.00;;
65375;SDS011;51976;47.332;9.404;2024-01-27T02:29:19;5.50;;;1.08;;
65375;SDS011;51976;47.332;9.404;2024-01-27T02:31:44;3.30;;;0.80;;
65375;SDS011;51976;47.332;9.404;2024-01-27T02:34:10;4.47;;;1.33;;
65375;SDS011;51976;47.332;9.404;2024-01-27T02:36:35;3.38;;;1.38;;
65375;SDS011;51976;47.332;9.404;2024-01-27T02:39:01;2.17;;;1.00;;
65375;SDS011;51976;47.332;9.404;2024-01-27T02:41:26;5.03;;;1.00;;
65375;SDS011;51976;47.332;9.404;2024-01-27T02:43:52;5.68;;;0.90;;
65375;SDS011;51976;47.332;9.404;2024-01-27T02:46:17;3.80;;;1.00;;
65375;SDS011;51976;47.332;9.404;2024-01-27T02:48:44;4.20;;;1.10;;
65375;SDS011;51976;47.332;9.404;2024-01-27T02:51:10;4.80;;;1.05;;
65375;SDS011;51976;47.332;9.404;2024-01-27T02:53:35;3.78;;;0.80;;
65375;SDS011;51976;47.332;9.404;2024-01-27T02:56:01;4.53;;;1.00;;
65375;SDS011;51976;47.332;9.404;2024-01-27T02:58:26;3.42;;;1.30;;
65375;SDS011;51976;47.332;9.404;2024-01-27T03:00:51;3.35;;;1.45;;
65375;SDS011;51976;47.332;9.404;2024-01-27T03:03:17;4.65;;;1.27;;
65375;SDS011;51976;47.332;9.404;2024-01-27T03:05:42;3.03;;;1.25;;
65375;SDS011;51976;47.332;9.404;2024-01-27T03:08:08;2.42;;;1.20;;
65375;SDS011;51976;47.332;9.404;2024-01-27T03:10:34;5.55;;;1.25;;
65375;SDS011;51976;47.332;9.404;2024-01-27T03:12:59;3.95;;;1.27;;
65375;SDS011;51976;47.332;9.404;2024-01-27T03:15:24;3.95;;;1.02;;
65375;SDS011;51976;47.332;9.404;2024-01-27T03:17:50;4.30;;;1.10;;
65375;SDS011;51976;47.332;9.404;2024-01-27T03:20:15;4.85;;;1.10;;
65375;SDS011;51976;47.332;9.404;2024-01-27T03:22:41;3.47;;;0.93;;
65375;SDS011;51976;47.332;9.404;2024-01-27T03:25:07;2.22;;;0.85;;
65375;SDS011;51976;47.332;9.404;2024-01-27T03:27:33;6.05;;;1.30;;
65375;SDS011;51976;47.332;9.404;2024-01-27T03:30:00;3.88;;;1.00;;
65375;SDS011;51976;47.332;9.404;2024-01-27T03:32:26;4.63;;;0.98;;
65375;SDS011;51976;47.332;9.404;2024-01-27T03:34:53;2.67;;;0.90;;
65375;SDS011;51976;47.332;9.404;2024-01-27T03:37:21;4.97;;;1.55;;
65375;SDS011;51976;47.332;9.404;2024-01-27T03:39:46;2.22;;;1.00;;
65375;SDS011;51976;47.332;9.404;2024-01-27T03:42:12;3.40;;;0.98;;
65375;SDS011;51976;47.332;9.404;2024-01-27T03:44:37;3.80;;;1.10;;
65375;SDS011;51976;47.332;9.404;2024-01-27T03:47:03;3.33;;;0.90;;
65375;SDS011;51976;47.332;9.404;2024-01-27T03:49:28;3.72;;;1.23;;
65375;SDS011;51976;47.332;9.404;2024-01-27T03:51:53;2.83;;;1.27;;
65375;SDS011;51976;47.332;9.404;2024-01-27T03:54:19;4.38;;;1.15;;
65375;SDS011;51976;47.332;9.404;2024-01-27T03:56:44;3.03;;;1.00;;
65375;SDS011;51976;47.332;9.404;2024-01-27T03:59:09;4.93;;;1.27;;
65375;SDS011;51976;47.332;9.404;2024-01-27T04:01:36;4.28;;;1.40;;
65375;SDS011;51976;47.332;9.404;2024-01-27T04:04:02;4.88;;;1.30;;
65375;SDS011;51976;47.332;9.404;2024-01-27T04:06:27;2.67;;;0.82;;
65375;SDS011;51976;47.332;9.404;2024-01-27T04:08:53;4.75;;;1.40;;
65375;SDS011;51976;47.332;9.404;2024-01-27T04:11:19;2.95;;;1.25;;
65375;SDS011;51976;47.332;9.404;2024-01-27T04:13:46;4.80;;;1.20;;
65375;SDS011;51976;47.332;9.404;2024-01-27T04:16:11;4.57;;;1.48;;
65375;SDS011;51976;47.332;9.404;2024-01-27T04:18:38;4.65;;;2.00;;
65375;SDS011;51976;47.332;9.404;2024-01-27T04:21:04;5.03;;;1.73;;
65375;SDS011;51976;47.332;9.404;2024-01-27T04:23:29;4.50;;;1.58;;
65375;SDS011;51976;47.332;9.404;2024-01-27T04:25:55;3.55;;;1.52;;
65375;SDS011;51976;47.332;9.404;2024-01-27T04:28:20;5.00;;;1.40;;
65375;SDS011;51976;47.332;9.404;2024-01-27T04:30:46;4.65;;;1.52;;
65375;SDS011;51976;47.332;9.404;2024-01-27T04:33:11;3.08;;;1.42;;
65375;SDS011;51976;47.332;9.404;2024-01-27T04:35:37;2.92;;;1.20;;
65375;SDS011;51976;47.332;9.404;2024-01-27T04:38:03;7.07;;;1.85;;
65375;SDS011;51976;47.332;9.404;2024-01-27T04:40:28;6.60;;;1.30;;
65375;SDS011;51976;47.332;9.404;2024-01-27T04:42:54;4.10;;;0.98;;
65375;SDS011;51976;47.332;9.404;2024-01-27T04:45:19;8.05;;;1.33;;
65375;SDS011;51976;47.332;9.404;2024-01-27T04:47:44;3.38;;;1.15;;
65375;SDS011;51976;47.332;9.404;2024-01-27T04:50:10;2.08;;;1.20;;
65375;SDS011;51976;47.332;9.404;2024-01-27T04:52:35;4.65;;;1.35;;
65375;SDS011;51976;47.332;9.404;2024-01-27T04:55:01;5.97;;;1.75;;
65375;SDS011;51976;47.332;9.404;2024-01-27T04:57:27;2.38;;;1.40;;
65375;SDS011;51976;47.332;9.404;2024-01-27T04:59:52;3.58;;;1.60;;
65375;SDS011;51976;47.332;9.404;2024-01-27T05:02:18;5.00;;;1.50;;
65375;SDS011;51976;47.332;9.404;2024-01-27T05:04:43;5.35;;;1.50;;
65375;SDS011;51976;47.332;9.404;2024-01-27T05:07:08;3.30;;;1.20;;
65375;SDS011;51976;47.332;9.404;2024-01-27T05:09:34;2.95;;;1.38;;
65375;SDS011;51976;47.332;9.404;2024-01-27T05:12:00;3.67;;;1.35;;
65375;SDS011;51976;47.332;9.404;2024-01-27T05:14:26;4.68;;;1.92;;
65375;SDS011;51976;47.332;9.404;2024-01-27T05:16:51;4.72;;;1.30;;
65375;SDS011;51976;47.332;9.404;2024-01-27T05:19:16;4.88;;;1.58;;
65375;SDS011;51976;47.332;9.404;2024-01-27T05:21:43;4.95;;;1.15;;
65375;SDS011;51976;47.332;9.404;2024-01-27T05:24:09;2.67;;;1.50;;
65375;SDS011;51976;47.332;9.404;2024-01-27T05:26:34;4.32;;;1.38;;
65375;SDS011;51976;47.332;9.404;2024-01-27T05:29:00;4.75;;;1.92;;
65375;SDS011;51976;47.332;9.404;2024-01-27T05:31:25;5.10;;;1.83;;
65375;SDS011;51976;47.332;9.404;2024-01-27T05:33:51;4.90;;;1.48;;
65375;SDS011;51976;47.332;9.404;2024-01-27T05:36:17;5.57;;;2.08;;
65375;SDS011;51976;47.332;9.404;2024-01-27T05:38:42;4.32;;;1.88;;
65375;SDS011;51976;47.332;9.404;2024-01-27T05:41:08;7.18;;;2.40;;
65375;SDS011;51976;47.332;9.404;2024-01-27T05:43:33;10.60;;;4.70;;
65375;SDS011;51976;47.332;9.404;2024-01-27T05:45:58;8.13;;;4.30;;
65375;SDS011;51976;47.332;9.404;2024-01-27T05:48:24;9.40;;;5.10;;
65375;SDS011;51976;47.332;9.404;2024-01-27T05:50:56;5.07;;;2.95;;
65375;SDS011;51976;47.332;9.404;2024-01-27T05:53:22;3.35;;;1.92;;
65375;SDS011;51976;47.332;9.404;2024-01-27T05:55:48;4.20;;;2.38;;
65375;SDS011;51976;47.332;9.404;2024-01-27T05:58:13;4.03;;;1.90;;
65375;SDS011;51976;47.332;9.404;2024-01-27T06:00:39;3.08;;;1.50;;
65375;SDS011;51976;47.332;9.404;2024-01-27T06:03:04;5.88;;;1.98;;
65375;SDS011;51976;47.332;9.404;2024-01-27T06:05:29;4.95;;;1.67;;
65375;SDS011;51976;47.332;9.404;2024-01-27T06:07:55;3.33;;;1.95;;
65375;SDS011;51976;47.332;9.404;2024-01-27T06:10:20;8.20;;;2.58;;
65375;SDS011;51976;47.332;9.404;2024-01-27T06:12:46;7.95;;;2.13;;
65375;SDS011;51976;47.332;9.404;2024-01-27T06:15:11;5.45;;;2.40;;
65375;SDS011;51976;47.332;9.404;2024-01-27T06:17:37;2.83;;;2.15;;
65375;SDS011;51976;47.332;9.404;2024-01-27T06:20:03;4.55;;;2.22;;
65375;SDS011;51976;47.332;9.404;2024-01-27T06:22:29;4.70;;;2.45;;
65375;SDS011;51976;47.332;9.404;2024-01-27T06:24:56;5.47;;;2.58;;
65375;SDS011;51976;47.332;9.404;2024-01-27T06:27:21;6.07;;;2.50;;
65375;SDS011;51976;47.332;9.404;2024-01-27T06:29:47;5.25;;;2.33;;
65375;SDS011;51976;47.332;9.404;2024-01-27T06:32:12;7.13;;;2.75;;
65375;SDS011;51976;47.332;9.404;2024-01-27T06:34:38;6.72;;;3.28;;
65375;SDS011;51976;47.332;9.404;2024-01-27T06:37:03;10.48;;;3.35;;
65375;SDS011;51976;47.332;9.404;2024-01-27T06:39:29;5.97;;;2.58;;
65375;SDS011;51976;47.332;9.404;2024-01-27T06:41:55;5.88;;;2.95;;
65375;SDS011;51976;47.332;9.404;2024-01-27T06:44:20;4.75;;;2.08;;
65375;SDS011;51976;47.332;9.404;2024-01-27T06:46:46;6.65;;;2.65;;
65375;SDS011;51976;47.332;9.404;2024-01-27T06:49:14;5.25;;;2.08;;
65375;SDS011;51976;47.332;9.404;2024-01-27T06:51:40;5.53;;;2.10;;
65375;SDS011;51976;47.332;9.404;2024-01-27T06:54:05;4.15;;;1.95;;
65375;SDS011;51976;47.332;9.404;2024-01-27T06:56:31;4.50;;;2.33;;
65375;SDS011;51976;47.332;9.404;2024-01-27T06:58:56;4.10;;;2.38;;
65375;SDS011;51976;47.332;9.404;2024-01-27T07:01:22;4.07;;;2.28;;
65375;SDS011;51976;47.332;9.404;2024-01-27T07:03:47;3.92;;;1.90;;
65375;SDS011;51976;47.332;9.404;2024-01-27T07:06:12;3.88;;;2.30;;
65375;SDS011;51976;47.332;9.404;2024-01-27T07:08:38;4.57;;;2.72;;
65375;SDS011;51976;47.332;9.404;2024-01-27T07:11:03;7.32;;;2.67;;
65375;SDS011;51976;47.332;9.404;2024-01-27T07:13:28;7.63;;;3.03;;
65375;SDS011;51976;47.332;9.404;2024-01-27T07:15:55;2.95;;;2.05;;
65375;SDS011;51976;47.332;9.404;2024-01-27T07:18:21;7.53;;;2.45;;
65375;SDS011;51976;47.332;9.404;2024-01-27T07:20:47;3.80;;;2.55;;
65375;SDS011;51976;47.332;9.404;2024-01-27T07:23:12;4.78;;;2.70;;
65375;SDS011;51976;47.332;9.404;2024-01-27T07:25:38;4.00;;;2.38;;
65375;SDS011;51976;47.332;9.404;2024-01-27T07:28:03;6.30;;;2.78;;
65375;SDS011;51976;47.332;9.404;2024-01-27T07:30:29;5.38;;;3.65;;
65375;SDS011;51976;47.332;9.404;2024-01-27T07:32:55;6.85;;;3.20;;
65375;SDS011;51976;47.332;9.404;2024-01-27T07:35:21;5.68;;;2.80;;
65375;SDS011;51976;47.332;9.404;2024-01-27T07:37:46;9.25;;;3.80;;
65375;SDS011;51976;47.332;9.404;2024-01-27T07:40:12;7.78;;;4.38;;
65375;SDS011;51976;47.332;9.404;2024-01-27T07:42:37;5.45;;;3.53;;
65375;SDS011;51976;47.332;9.404;2024-01-27T07:45:02;5.57;;;3.60;;
65375;SDS011;51976;47.332;9.404;2024-01-27T07:47:28;7.72;;;3.88;;
65375;SDS011;51976;47.332;9.404;2024-01-27T07:49:53;7.13;;;3.58;;
65375;SDS011;51976;47.332;9.404;2024-01-27T07:52:19;5.85;;;3.35;;
65375;SDS011;51976;47.332;9.404;2024-01-27T07:54:45;6.93;;;3.65;;
65375;SDS011;51976;47.332;9.404;2024-01-27T07:57:10;4.70;;;2.95;;
65375;SDS011;51976;47.332;9.404;2024-01-27T07:59:37;5.88;;;3.40;;
65375;SDS011;51976;47.332;9.404;2024-01-27T08:02:02;4.35;;;2.67;;
65375;SDS011;51976;47.332;9.404;2024-01-27T08:04:28;4.75;;;2.63;;
65375;SDS011;51976;47.332;9.404;2024-01-27T08:06:53;6.30;;;3.25;;
65375;SDS011;51976;47.332;9.404;2024-01-27T08:09:19;7.43;;;3.65;;
65375;SDS011;51976;47.332;9.404;2024-01-27T08:11:45;7.45;;;4.15;;
65375;SDS011;51976;47.332;9.404;2024-01-27T08:14:11;5.82;;;3.67;;
65375;SDS011;51976;47.332;9.404;2024-01-27T08:16:37;8.65;;;4.53;;
65375;SDS011;51976;47.332;9.404;2024-01-27T08:19:02;8.38;;;4.60;;
65375;SDS011;51976;47.332;9.404;2024-01-27T08:21:27;7.07;;;4.40;;
65375;SDS011;51976;47.332;9.404;2024-01-27T08:23:53;6.60;;;4.40;;
65375;SDS011;51976;47.332;9.404;2024-01-27T08:26:20;5.93;;;3.20;;
65375;SDS011;51976;47.332;9.404;2024-01-27T08:28:46;3.85;;;2.38;;
65375;SDS011;51976;47.332;9.404;2024-01-27T08:31:12;2.97;;;2.10;;
65375;SDS011;51976;47.332;9.404;2024-01-27T08:33:38;5.22;;;2.13;;
65375;SDS011;51976;47.332;9.404;2024-01-27T08:36:03;4.90;;;2.50;;
65375;SDS011;51976;47.332;9.404;2024-01-27T08:38:29;5.18;;;2.72;;
65375;SDS011;51976;47.332;9.404;2024-01-27T08:40:54;4.78;;;2.67;;
65375;SDS011;51976;47.332;9.404;2024-01-27T08:43:20;4.25;;;2.63;;
65375;SDS011;51976;47.332;9.404;2024-01-27T08:45:45;4.55;;;2.78;;
65375;SDS011;51976;47.332;9.404;2024-01-27T08:48:11;7.85;;;3.47;;
65375;SDS011;51976;47.332;9.404;2024-01-27T08:50:37;6.40;;;2.97;;
65375;SDS011;51976;47.332;9.404;2024-01-27T08:53:03;4.93;;;3.45;;
65375;SDS011;51976;47.332;9.404;2024-01-27T08:55:28;7.25;;;3.22;;
65375;SDS011;51976;47.332;9.404;2024-01-27T08:57:55;5.03;;;2.80;;
65375;SDS011;51976;47.332;9.404;2024-01-27T09:00:23;7.63;;;3.55;;
65375;SDS011;51976;47.332;9.404;2024-01-27T09:02:49;6.35;;;3.28;;
65375;SDS011;51976;47.332;9.404;2024-01-27T09:05:14;6.18;;;2.90;;
65375;SDS011;51976;47.332;9.404;2024-01-27T09:07:40;4.20;;;2.78;;
65375;SDS011;51976;47.332;9.404;2024-01-27T09:10:05;6.40;;;2.30;;
65375;SDS011;51976;47.332;9.404;2024-01-27T09:12:32;4.18;;;2.65;;
65375;SDS011;51976;47.332;9.404;2024-01-27T09:14:58;4.85;;;2.58;;
65375;SDS011;51976;47.332;9.404;2024-01-27T09:17:23;6.80;;;2.42;;
65375;SDS011;51976;47.332;9.404;2024-01-27T09:19:48;4.15;;;2.28;;
65375;SDS011;51976;47.332;9.404;2024-01-27T09:22:14;4.95;;;2.50;;
65375;SDS011;51976;47.332;9.404;2024-01-27T09:24:40;3.30;;;2.22;;
65375;SDS011;51976;47.332;9.404;2024-01-27T09:27:05;8.65;;;3.40;;
65375;SDS011;51976;47.332;9.404;2024-01-27T09:29:31;5.60;;;2.47;;
65375;SDS011;51976;47.332;9.404;2024-01-27T09:31:56;5.55;;;2.35;;
65375;SDS011;51976;47.332;9.404;2024-01-27T09:34:21;4.93;;;2.67;;
65375;SDS011;51976;47.332;9.404;2024-01-27T09:36:47;5.25;;;2.47;;
65375;SDS011;51976;47.332;9.404;2024-01-27T09:39:12;3.53;;;1.85;;
65375;SDS011;51976;47.332;9.404;2024-01-27T09:41:38;4.43;;;2.13;;
65375;SDS011;51976;47.332;9.404;2024-01-27T09:44:03;4.03;;;2.00;;
65375;SDS011;51976;47.332;9.404;2024-01-27T09:46:30;4.47;;;2.33;;
65375;SDS011;51976;47.332;9.404;2024-01-27T09:48:56;5.20;;;1.92;;
65375;SDS011;51976;47.332;9.404;2024-01-27T09:51:21;4.93;;;2.50;;
65375;SDS011;51976;47.332;9.404;2024-01-27T09:53:47;4.20;;;2.42;;
65375;SDS011;51976;47.332;9.404;2024-01-27T09:56:15;4.65;;;3.00;;
65375;SDS011;51976;47.332;9.404;2024-01-27T09:58:43;6.05;;;2.97;;
65375;SDS011;51976;47.332;9.404;2024-01-27T10:01:09;3.55;;;2.33;;
65375;SDS011;51976;47.332;9.404;2024-01-27T10:03:35;4.07;;;2.42;;
65375;SDS011;51976;47.332;9.404;2024-01-27T10:06:03;3.95;;;2.45;;
65375;SDS011;51976;47.332;9.404;2024-01-27T10:08:32;5.50;;;2.28;;
65375;SDS011;51976;47.332;9.404;2024-01-27T10:10:58;5.20;;;2.67;;
65375;SDS011;51976;47.332;9.404;2024-01-27T10:13:24;3.38;;;2.30;;
65375;SDS011;51976;47.332;9.404;2024-01-27T10:16:01;4.10;;;2.63;;
65375;SDS011;51976;47.332;9.404;2024-01-27T10:18:33;4.75;;;2.50;;
65375;SDS011;51976;47.332;9.404;2024-01-27T10:20:59;3.33;;;2.10;;
65375;SDS011;51976;47.332;9.404;2024-01-27T10:23:25;3.40;;;2.45;;
65375;SDS011;51976;47.332;9.404;2024-01-27T10:25:51;4.53;;;2.38;;
65375;SDS011;51976;47.332;9.404;2024-01-27T10:28:17;3.83;;;2.65;;
65375;SDS011;51976;47.332;9.404;2024-01-27T10:30:43;3.10;;;2.47;;
65375;SDS011;51976;47.332;9.404;2024-01-27T10:33:09;4.07;;;2.95;;
65375;SDS011;51976;47.332;9.404;2024-01-27T10:35:39;3.42;;;2.72;;
65375;SDS011;51976;47.332;9.404;2024-01-27T10:38:05;3.97;;;2.78;;
65375;SDS011;51976;47.332;9.404;2024-01-27T10:40:30;4.57;;;2.88;;
65375;SDS011;51976;47.332;9.404;2024-01-27T10:43:02;5.13;;;3.30;;
65375;SDS011;51976;47.332;9.404;2024-01-27T10:45:34;5.20;;;3.03;;
65375;SDS011;51976;47.332;9.404;2024-01-27T10:48:02;3.83;;;2.67;;
65375;SDS011;51976;47.332;9.404;2024-01-27T10:50:29;3.95;;;2.90;;
65375;SDS011;51976;47.332;9.404;2024-01-27T10:52:57;4.72;;;2.78;;
65375;SDS011;51976;47.332;9.404;2024-01-27T10:55:23;4.63;;;2.60;;
65375;SDS011;51976;47.332;9.404;2024-01-27T10:57:50;4.32;;;3.08;;
65375;SDS011;51976;47.332;9.404;2024-01-27T11:00:19;7.05;;;3.83;;
65375;SDS011;51976;47.332;9.404;2024-01-27T11:02:44;4.13;;;3.40;;
65375;SDS011;51976;47.332;9.404;2024-01-27T11:05:11;4.20;;;3.15;;
65375;SDS011;51976;47.332;9.404;2024-01-27T11:07:38;4.68;;;3.42;;
65375;SDS011;51976;47.332;9.404;2024-01-27T11:10:06;3.55;;;2.80;;
65375;SDS011;51976;47.332;9.404;2024-01-27T11:12:32;5.35;;;3.40;;
65375;SDS011;51976;47.332;9.404;2024-01-27T11:14:58;5.38;;;3.45;;
65375;SDS011;51976;47.332;9.404;2024-01-27T11:17:24;3.60;;;2.88;;
65375;SDS011;51976;47.332;9.404;2024-01-27T11:19:49;4.25;;;3.47;;
65375;SDS011;51976;47.332;9.404;2024-01-27T11:22:24;3.40;;;3.03;;
65375;SDS011;51976;47.332;9.404;2024-01-27T11:25:04;5.32;;;3.00;;
65375;SDS011;51976;47.332;9.404;2024-01-27T11:27:31;4.55;;;3.13;;
65375;SDS011;51976;47.332;9.404;2024-01-27T11:29:57;3.55;;;3.13;;
65375;SDS011;51976;47.332;9.404;2024-01-27T11:32:22;4.30;;;3.00;;
65375;SDS011;51976;47.332;9.404;2024-01-27T11:34:48;4.18;;;3.30;;
65375;SDS011;51976;47.332;9.404;2024-01-27T11:37:14;5.13;;;3.30;;
65375;SDS011;51976;47.332;9.404;2024-01-27T11:39:40;5.07;;;3.60;;
65375;SDS011;51976;47.332;9.404;2024-01-27T11:42:07;5.07;;;3.63;;
65375;SDS011;51976;47.332;9.404;2024-01-27T11:44:34;4.45;;;3.67;;
65375;SDS011;51976;47.332;9.404;2024-01-27T11:47:00;4.50;;;3.60;;
65375;SDS011;51976;47.332;9.404;2024-01-27T11:49:26;4.25;;;3.38;;
65375;SDS011;51976;47.332;9.404;2024-01-27T11:51:52;3.83;;;3.22;;
65375;SDS011;51976;47.332;9.404;2024-01-27T11:54:17;4.35;;;3.30;;
65375;SDS011;51976;47.332;9.404;2024-01-27T11:56:42;6.13;;;3.72;;
65375;SDS011;51976;47.332;9.404;2024-01-27T11:59:09;5.25;;;3.90;;
65375;SDS011;51976;47.332;9.404;2024-01-27T12:01:35;5.32;;;3.22;;
65375;SDS011;51976;47.332;9.404;2024-01-27T12:04:02;10.65;;;3.63;;
65375;SDS011;51976;47.332;9.404;2024-01-27T12:06:29;3.92;;;2.95;;
65375;SDS011;51976;47.332;9.404;2024-01-27T12:08:55;5.22;;;3.58;;
65375;SDS011;51976;47.332;9.404;2024-01-27T12:11:22;4.72;;;3.53;;
65375;SDS011;51976;47.332;9.404;2024-01-27T12:13:51;4.38;;;2.80;;
65375;SDS011;51976;47.332;9.404;2024-01-27T12:16:17;3.85;;;2.85;;
65375;SDS011;51976;47.332;9.404;2024-01-27T12:18:43;4.28;;;2.92;;
65375;SDS011;51976;47.332;9.404;2024-01-27T12:21:09;4.07;;;2.65;;
65375;SDS011;51976;47.332;9.404;2024-01-27T12:23:35;2.97;;;2.42;;
65375;SDS011;51976;47.332;9.404;2024-01-27T12:26:00;3.92;;;3.00;;
65375;SDS011;51976;47.332;9.404;2024-01-27T12:28:26;3.50;;;2.78;;
65375;SDS011;51976;47.332;9.404;2024-01-27T12:30:52;3.20;;;2.55;;
65375;SDS011;51976;47.332;9.404;2024-01-27T12:33:18;3.78;;;2.88;;
65375;SDS011;51976;47.332;9.404;2024-01-27T12:35:48;4.25;;;2.25;;
65375;SDS011;51976;47.332;9.404;2024-01-27T12:38:14;4.82;;;2.83;;
65375;SDS011;51976;47.332;9.404;2024-01-27T12:40:39;5.28;;;3.10;;
65375;SDS011;51976;47.332;9.404;2024-01-27T12:43:05;4.00;;;2.65;;
65375;SDS011;51976;47.332;9.404;2024-01-27T12:45:31;3.90;;;3.40;;
65375;SDS011;51976;47.332;9.404;2024-01-27T12:47:56;5.10;;;3.95;;
65375;SDS011;51976;47.332;9.404;2024-01-27T12:50:21;6.88;;;3.95;;
65375;SDS011;51976;47.332;9.404;2024-01-27T12:52:47;7.55;;;4.43;;
65375;SDS011;51976;47.332;9.404;2024-01-27T12:55:13;6.03;;;4.35;;
65375;SDS011;51976;47.332;9.404;2024-01-27T12:57:38;8.82;;;4.53;;
65375;SDS011;51976;47.332;9.404;2024-01-27T13:00:05;7.97;;;4.43;;
65375;SDS011;51976;47.332;9.404;2024-01-27T13:02:35;7.03;;;4.30;;
65375;SDS011;51976;47.332;9.404;2024-01-27T13:05:02;6.82;;;4.50;;
65375;SDS011;51976;47.332;9.404;2024-01-27T13:07:27;6.38;;;4.15;;
65375;SDS011;51976;47.332;9.404;2024-01-27T13:09:53;8.32;;;4.53;;
65375;SDS011;51976;47.332;9.404;2024-01-27T13:12:18;7.43;;;3.95;;
65375;SDS011;51976;47.332;9.404;2024-01-27T13:14:43;7.28;;;4.40;;
65375;SDS011;51976;47.332;9.404;2024-01-27T13:17:09;7.25;;;4.65;;
65375;SDS011;51976;47.332;9.404;2024-01-27T13:19:34;10.52;;;5.00;;
65375;SDS011;51976;47.332;9.404;2024-01-27T13:22:00;7.80;;;4.82;;
65375;SDS011;51976;47.332;9.404;2024-01-27T13:24:25;7.05;;;4.30;;
65375;SDS011;51976;47.332;9.404;2024-01-27T13:26:51;6.47;;;4.28;;
65375;SDS011;51976;47.332;9.404;2024-01-27T13:29:17;4.82;;;3.40;;
65375;SDS011;51976;47.332;9.404;2024-01-27T13:31:42;4.60;;;3.42;;
65375;SDS011;51976;47.332;9.404;2024-01-27T13:34:07;5.45;;;3.70;;
65375;SDS011;51976;47.332;9.404;2024-01-27T13:36:33;5.47;;;3.38;;
65375;SDS011;51976;47.332;9.404;2024-01-27T13:38:59;5.13;;;3.30;;
65375;SDS011;51976;47.332;9.404;2024-01-27T13:41:25;6.88;;;3.40;;
65375;SDS011;51976;47.332;9.404;2024-01-27T13:43:50;6.90;;;3.50;;
65375;SDS011;51976;47.332;9.404;2024-01-27T13:46:16;5.38;;;3.50;;
65375;SDS011;51976;47.332;9.404;2024-01-27T13:48:42;4.57;;;3.50;;
65375;SDS011;51976;47.332;9.404;2024-01-27T13:51:07;4.65;;;3.30;;
65375;SDS011;51976;47.332;9.404;2024-01-27T13:53:33;4.28;;;3.53;;
65375;SDS011;51976;47.332;9.404;2024-01-27T13:55:58;4.22;;;3.25;;
65375;SDS011;51976;47.332;9.404;2024-01-27T13:58:25;5.85;;;3.17;;
65375;SDS011;51976;47.332;9.404;2024-01-27T14:00:51;6.32;;;3.45;;
65375;SDS011;51976;47.332;9.404;2024-01-27T14:03:16;4.90;;;3.65;;
65375;SDS011;51976;47.332;9.404;2024-01-27T14:05:42;7.78;;;3.80;;
65375;SDS011;51976;47.332;9.404;2024-01-27T14:08:08;5.38;;;3.00;;
65375;SDS011;51976;47.332;9.404;2024-01-27T14:10:35;5.45;;;3.38;;
65375;SDS011;51976;47.332;9.404;2024-01-27T14:13:01;6.90;;;3.42;;
65375;SDS011;51976;47.332;9.404;2024-01-27T14:15:29;4.05;;;3.35;;
65375;SDS011;51976;47.332;9.404;2024-01-27T14:17:55;4.90;;;3.22;;
65375;SDS011;51976;47.332;9.404;2024-01-27T14:20:21;6.28;;;3.78;;
65375;SDS011;51976;47.332;9.404;2024-01-27T14:22:46;4.93;;;3.10;;
65375;SDS011;51976;47.332;9.404;2024-01-27T14:25:11;3.25;;;2.65;;
65375;SDS011;51976;47.332;9.404;2024-01-27T14:27:37;5.25;;;3.25;;
65375;SDS011;51976;47.332;9.404;2024-01-27T14:30:02;4.65;;;2.80;;
65375;SDS011;51976;47.332;9.404;2024-01-27T14:32:28;5.40;;;3.50;;
65375;SDS011;51976;47.332;9.404;2024-01-27T14:34:53;7.57;;;3.95;;
65375;SDS011;51976;47.332;9.404;2024-01-27T14:37:19;3.60;;;3.10;;
65375;SDS011;51976;47.332;9.404;2024-01-27T14:39:44;6.00;;;3.55;;